Kanchanaburi, Thailand
Current Conditions -  °F | °C
As of 9:00 PM on Wednesday 28 Jan 2015 (Local Time) from VTBD Reporting Station
Clear Clear  
Wind Chill: 81°   Ceiling: Unl
Heat Index: 84°   Visibility: 4mi
Dew Point: 70°   Wind: 6mph
Humidity: 70%   Direction: 160°SSE
Pressure: 29.85"   Gusts: NA
Location:  14.02°N, 99.53°E
Report Text: VTBD 281400Z 16005KT 6000 NSC 27/21 Q1011 NOSIG
Loading
Personal Weather Stations






























Interactive Weather Map New forecast layout! Learn more

10-Day Weather Forecast

Advertisements
Track Severe Weather on mobile